• Join FlightAware (Why Join?)
  • Login
  • US Flag 
01:27PM EDT


 

Airport Tracker/Info


-or-


 

Live Flight TrackerFlight Track Log ✈ N665QS ✈ 30-Apr-2012 ✈ KMIA - KTEB

Flight Track Log - Related Links

Times and Time Zones

All times are in EDT time to prevent confusion due to time zone crossing. See the N665QS flight status page for this flight to view local times or setup timezone preferences in your user account.

Time Position Orientation Groundspeed Altitude Reporting Facility
EDT Latitude Longitude Course Direction KTS MPH feet Rate Location/Type
09:45AM 25.8003 -80.2700 80° East 168 193 1,100  Level Miami Center
09:46AM 25.8078 -80.2217 53° Northeast 180 207 3,500 2,640 Climbing Miami Center
09:47AM 25.8400 -80.1742 336° Northwest 253 291 6,200 1,740 Climbing Miami Center
09:48AM 25.9000 -80.2033 320° Northwest 297 342 7,000 360 Climbing Miami Center
09:49AM 25.9614 -80.2606 329° Northwest 297 342 7,000 900 Level Miami Center
09:50AM 26.0292 -80.3064 331° Northwest 287 330 8,900 2,160 Climbing Miami Center
09:51AM 26.0992 -80.3500 331° Northwest 282 325 11,400 2,460 Climbing Miami Center
09:52AM 26.1692 -80.3939 335° Northwest 282 325 13,900 2,220 Climbing Miami Center
09:53AM 26.2456 -80.4331 342° North 289 333 15,900 1,920 Climbing Miami Center
09:54AM 26.3344 -80.4658 340° North 302 348 17,800 1,560 Climbing Miami Center
09:55AM 26.4214 -80.5011 342° North 316 364 19,100 1,260 Climbing Miami Center
09:56AM 26.5042 -80.5317 341° North 334 384 20,400 1,440 Climbing Miami Center
09:57AM 26.6097 -80.5719 340° North 353 406 22,000 1,500 Climbing Miami Center
09:58AM 26.6964 -80.6072 341° North 365 420 23,400 1,440 Climbing Miami Center
09:59AM 26.7956 -80.6453 341° North 365 420 24,900 1,500 Climbing Miami Center
10:00AM 26.8928 -80.6833 341° North 365 420 26,400 1,380 Climbing Miami Center
10:01AM 26.9919 -80.7217 340° North 365 420 27,700 1,200 Climbing Miami Center
10:02AM 27.0911 -80.7622 342° North 370 426 28,800 960 Climbing Miami Center
10:03AM 27.1944 -80.8008 341° North 376 433 29,700 900 Climbing Miami Center
10:04AM 27.2978 -80.8417 340° North 382 440 30,600 900 Climbing Miami Center
10:05AM 27.4053 -80.8850 341° North 387 445 31,500 1,020 Climbing Miami Center
10:06AM 27.5106 -80.9264 341° North 392 451 32,700 1,140 Climbing Miami Center
10:07AM 27.6136 -80.9675 341° North 392 451 33,800 1,140 Climbing Miami Center
10:08AM 27.7189 -81.0086 341° North 398 458 35,000 1,200 Climbing Miami Center
10:09AM 27.8200 -81.0475 341° North 393 452 36,300 1,440 Climbing Miami Center
10:10AM 27.9192 -81.0864 341° North 387 445 37,900 1,440 Climbing Miami Center
10:11AM 28.0244 -81.1281 341° North 370 426 39,200 1,080 Climbing Miami Center
10:12AM 28.1089 -81.1619 340° North 365 420 40,100 780 Climbing Miami Center
10:13AM 28.2036 -81.2008 341° North 365 420 40,800 300 Climbing Miami Center
10:15AM 28.3797 -81.2717 340° North 384 442 41,000 60 Climbing Jacksonville Center
10:16AM 28.4825 -81.3150 347° North 391 450 41,000  Level Jacksonville Center
10:17AM 28.5914 -81.3439 355° North 391 450 41,000  Level Jacksonville Center
10:18AM 28.7042 -81.3542 356° North 397 457 41,000  Level Jacksonville Center
10:19AM 28.8211 -81.3642 355° North 409 471 41,000  Level Jacksonville Center
10:20AM 28.9361 -81.3767 355° North 409 471 41,000  Level Jacksonville Center
10:21AM 29.0469 -81.3867 358° North 409 471 41,000  Level Jacksonville Center
10:22AM 29.1617 -81.3922 North 409 471 41,000  Level Jacksonville Center
10:23AM 29.2764 -81.3881 North 404 465 41,000  Level Jacksonville Center
10:24AM 29.3892 -81.3792 North 404 465 41,000  Level Jacksonville Center
10:25AM 29.5142 -81.3725 North 404 465 41,000  Level Jacksonville Center
10:26AM 29.6311 -81.3633 North 404 465 41,000  Level Jacksonville Center
10:27AM 29.7458 -81.3544 North 409 471 41,000  Level Jacksonville Center
10:28AM 29.8606 -81.3478 North 409 471 41,000  Level Jacksonville Center
10:29AM 29.9731 -81.3411 North 404 465 41,000  Level Jacksonville Center
10:30AM 30.0919 -81.3344 North 404 465 41,000  Level Jacksonville Center
10:31AM 30.2067 -81.3256 North 404 465 41,000  Level Jacksonville Center
10:32AM 30.3194 -81.3164 North 404 465 41,000  Level Jacksonville Center
10:33AM 30.4342 -81.3097 North 404 465 41,000  Level Jacksonville Center
10:34AM 30.5489 -81.3031 North 404 465 41,000  Level Jacksonville Center
10:35AM 30.6636 -81.2939 North 404 465 41,000  Level Jacksonville Center
10:36AM 30.7761 -81.2775 23° Northeast 404 465 41,000  Level Jacksonville Center
10:37AM 30.8842 -81.2247 23° Northeast 404 465 41,000  Level Jacksonville Center
10:38AM 30.9919 -81.1719 23° Northeast 404 465 41,000  Level Jacksonville Center
10:39AM 31.0978 -81.1192 22° Northeast 409 471 41,000  Level Jacksonville Center
10:40AM 31.2075 -81.0683 22° Northeast 414 476 41,000  Level Jacksonville Center
10:41AM 31.3133 -81.0178 20° North 416 479 41,000  Level Jacksonville Center
10:42AM 31.4131 -80.9744 22° Northeast 411 473 41,000  Level Jacksonville Center
10:43AM 31.5289 -80.9183 22° Northeast 411 473 41,000  Level Jacksonville Center
10:44AM 31.6389 -80.8672 23° Northeast 411 473 41,000  Level Jacksonville Center
10:45AM 31.7361 -80.8186 22° Northeast 411 473 41,000  Level Jacksonville Center
10:46AM 31.8542 -80.7622 22° Northeast 411 473 41,000  Level Jacksonville Center
10:47AM 31.9536 -80.7158 22° Northeast 411 473 41,000  Level Jacksonville Center
10:48AM 32.0614 -80.6642 23° Northeast 411 473 41,000  Level Jacksonville Center
10:49AM 32.1669 -80.6103 21° North 411 473 41,000  Level Jacksonville Center
10:50AM 32.2786 -80.5583 22° Northeast 411 473 41,000  Level Jacksonville Center
10:51AM 32.3861 -80.5064 24° Northeast 416 479 41,000  Level Jacksonville Center
10:52AM 32.4917 -80.4517 21° North 416 479 41,000  Level Jacksonville Center
10:53AM 32.6014 -80.4019 23° Northeast 411 473 41,000  Level Jacksonville Center
10:54AM 32.7108 -80.3472 23° Northeast 411 473 41,000  Level Jacksonville Center
10:55AM 32.8161 -80.2947 23° Northeast 411 473 41,000  Level Jacksonville Center
10:56AM 32.9217 -80.2422 22° Northeast 411 473 41,000  Level Jacksonville Center
10:57AM 33.0333 -80.1894 23° Northeast 421 484 41,000  Level Jacksonville Center
10:58AM 33.1406 -80.1339 21° North 421 484 41,000  Level Jacksonville Center
10:59AM 33.2644 -80.0756 23° Northeast 421 484 41,000  Level Jacksonville Center
11:00AM 33.3675 -80.0225 22° Northeast 415 478 41,000  Level Jacksonville Center
11:01AM 33.4728 -79.9717 23° Northeast 410 472 41,000  Level Jacksonville Center
11:02AM 33.5781 -79.9183 22° Northeast 410 472 41,000  Level Jacksonville Center
11:03AM 33.6853 -79.8650 23° Northeast 410 472 41,000  Level Jacksonville Center
11:04AM 33.7906 -79.8114 23° Northeast 410 472 41,000  Level Jacksonville Center
11:05AM 33.8956 -79.7578 23° Northeast 410 472 41,000  Level Jacksonville Center
11:06AM 34.0006 -79.7039 23° Northeast 410 472 41,000  Level Jacksonville Center
11:07AM 34.1056 -79.6497 23° Northeast 410 472 41,000  Level Jacksonville Center
11:08AM 34.2128 -79.5956 24° Northeast 410 472 41,000  Level Jacksonville Center
11:10AM 34.3833 -79.5025 22° Northeast 411 473 41,000  Level Washington Center
11:11AM 34.4936 -79.4497 22° Northeast 411 473 41,000  Level Washington Center
11:12AM 34.6017 -79.3969 23° Northeast 416 479 41,000  Level Washington Center
11:13AM 34.7203 -79.3367 24° Northeast 416 479 41,000  Level Washington Center
11:14AM 34.8286 -79.2783 22° Northeast 423 487 41,000  Level Washington Center
11:15AM 34.9367 -79.2250 23° Northeast 418 481 41,000  Level Washington Center
11:16AM 35.0447 -79.1692 23° Northeast 423 487 41,000  Level Washington Center
11:17AM 35.1550 -79.1106 22° Northeast 423 487 41,000  Level Washington Center
11:18AM 35.2631 -79.0567 23° Northeast 423 487 41,000  Level Washington Center
11:19AM 35.3711 -79.0003 23° Northeast 423 487 41,000  Level Washington Center
11:20AM 35.4811 -78.9436 23° Northeast 423 487 41,000  Level Washington Center
11:21AM 35.5764 -78.8942 24° Northeast 423 487 41,000  Level Washington Center
11:22AM 35.6864 -78.8347 23° Northeast 423 487 41,000  Level Washington Center
11:23AM 35.7944 -78.7775 24° Northeast 423 487 41,000  Level Washington Center
11:24AM 35.9131 -78.7131 23° Northeast 418 481 41,000  Level Washington Center
11:25AM 36.0231 -78.6558 24° Northeast 418 481 41,000  Level Washington Center
11:26AM 36.1267 -78.5981 23° Northeast 418 481 41,000  Level Washington Center
11:27AM 36.2325 -78.5431 24° Northeast 413 475 41,000  Level Washington Center
11:28AM 36.3381 -78.4850 23° Northeast 406 467 41,000  Level Washington Center
11:29AM 36.4439 -78.4297 23° Northeast 406 467 41,000  Level Washington Center
11:30AM 36.5472 -78.3739 26° Northeast 401 461 41,000  Level Washington Center
11:31AM 36.6383 -78.3175 33° Northeast 406 467 41,000  Level Washington Center
11:32AM 36.7361 -78.2381 33° Northeast 401 461 41,000  Level Washington Center
11:33AM 36.8317 -78.1608 33° Northeast 406 467 41,000  Level Washington Center
11:34AM 36.9250 -78.0836 34° Northeast 406 467 41,000  Level Washington Center
11:35AM 37.0186 -78.0033 34° Northeast 406 467 41,000  Level Washington Center
11:36AM 37.1161 -77.9203 34° Northeast 406 467 41,000  Level Washington Center
11:37AM 37.2094 -77.8422 33° Northeast 406 467 41,000  Level Washington Center
11:38AM 37.3069 -77.7617 34° Northeast 406 467 41,000  Level Washington Center
11:39AM 37.4000 -77.6833 33° Northeast 406 467 41,000  Level Washington Center
11:40AM 37.4953 -77.6047 33° Northeast 406 467 41,000  Level Washington Center
11:41AM 37.5883 -77.5286 35° Northeast 406 467 41,000  Level Washington Center
11:42AM 37.6772 -77.4494 33° Northeast 406 467 41,000  Level Washington Center
11:43AM 37.7700 -77.3731 34° Northeast 406 467 41,000  Level Washington Center
11:44AM 37.8608 -77.2961 34° Northeast 406 467 41,000  Level Washington Center
11:45AM 37.9517 -77.2192 35° Northeast 401 461 41,000  Level Washington Center
11:46AM 38.0381 -77.1419 34° Northeast 395 455 41,000 -300 Level Washington Center
11:47AM 38.1267 -77.0672 35° Northeast 390 449 40,500 -1,320 Descending Washington Center
11:48AM 38.2131 -76.9897 39° Northeast 384 442 38,500 -2,160 Descending Washington Center
11:49AM 38.3017 -76.8989 39° Northeast 384 442 36,300 -2,160 Descending Washington Center
11:50AM 38.3903 -76.8075 40° Northeast 395 455 34,200 -2,100 Descending Washington Center
11:51AM 38.4744 -76.7161 34° Northeast 400 460 32,100 -1,920 Descending Washington Center
11:55AM 38.8586 -76.3833 22° Northeast 415 478 24,700 -1,680 Descending Washington Center
11:56AM 38.9653 -76.3283 20° North 410 472 24,000 -360 Descending Washington Center
11:57AM 39.0844 -76.2736 31° Northeast 410 472 24,000  Level Washington Center
11:58AM 39.1806 -76.1994 41° Northeast 404 465 24,000  Level Washington Center
11:59AM 39.2603 -76.1089 37° Northeast 410 472 24,000 -780 Level Washington Center
12:00PM 39.3503 -76.0211 39° Northeast 410 472 22,500 -1,860 Descending Washington Center
12:00PM 39.4133 -75.9556 36° Northeast 384 442 21,000 -2,100 Descending FAA TRACON SMA TRACON (SMA)
12:01PM 39.4675 -75.9047 36° Northeast 389 448 19,800 -2,100 Descending FAA TRACON SMA TRACON (SMA)
12:02PM 39.5286 -75.8481 37° Northeast 391 450 18,200 -1,980 Descending FAA TRACON SMA TRACON (SMA)
12:02PM 39.5856 -75.7919 35° Northeast 384 442 17,200 -1,620 Descending FAA TRACON SMA TRACON (SMA)
12:03PM 39.6375 -75.7450 35° Northeast 360 414 16,100 -1,800 Descending FAA TRACON SMA TRACON (SMA)
12:04PM 39.6939 -75.6931 34° Northeast 361 415 14,800 -1,920 Descending FAA TRACON SMA TRACON (SMA)
12:04PM 39.7508 -75.6436 37° Northeast 366 421 13,600 -1,380 Descending FAA TRACON SMA TRACON (SMA)
12:05PM 39.8022 -75.5933 35° Northeast 361 415 13,000 -480 Descending FAA TRACON SMA TRACON (SMA)
12:06PM 39.8583 -75.5417 35° Northeast 357 411 13,000  Level FAA TRACON SMA TRACON (SMA)
12:06PM 39.9142 -75.4900 35° Northeast 354 407 13,000  Level FAA TRACON SMA TRACON (SMA)
12:07PM 39.9644 -75.4442 36° Northeast 353 406 13,000  Level FAA TRACON SMA TRACON (SMA)
12:08PM 40.0194 -75.3925 35° Northeast 350 403 13,000  Level FAA TRACON SMA TRACON (SMA)
12:08PM 40.0689 -75.3469 36° Northeast 351 404 13,000  Level FAA TRACON SMA TRACON (SMA)
12:09PM 40.1217 -75.2967 35° Northeast 350 403 13,000 -240 Level FAA TRACON SMA TRACON (SMA)
12:10PM 40.1783 -75.2442 35° Northeast 347 399 12,700 -1,020 Descending FAA TRACON SMA TRACON (SMA)
12:10PM 40.2286 -75.1978 35° Northeast 315 362 11,600 -1,620 Descending FAA TRACON SMA TRACON (SMA)
12:11PM 40.2706 -75.1586 36° Northeast 302 348 10,600 -1,740 Descending FAA TRACON SMA TRACON (SMA)
12:12PM 40.3161 -75.1156 46° Northeast 295 339 9,400 -1,680 Descending FAA TRACON SMA TRACON (SMA)
12:12PM 40.3517 -75.0678 47° Northeast 293 337 8,400 -1,620 Descending FAA TRACON SMA TRACON (SMA)
12:13PM 40.3900 -75.0147 47° Northeast 288 331 7,300 -1,140 Descending FAA TRACON SMA TRACON (SMA)
12:14PM 40.4275 -74.9619 28° Northeast 284 327 6,900 -600 Descending FAA TRACON SMA TRACON (SMA)
12:14PM 40.4678 -74.9339 27° Northeast 272 313 6,500 -720 Descending FAA TRACON SMA TRACON (SMA)
12:15PM 40.5136 -74.9033 28° Northeast 272 313 6,000 -600 Descending FAA TRACON SMA TRACON (SMA)
12:16PM 40.5453 -74.8808 36° Northeast 272 313 5,700 -720 Descending FAA TRACON SMA TRACON (SMA)
12:18PM 40.6833 -74.7500 45° Northeast 267 307 4,100 -540 Descending New York TRACON
12:19PM 40.7333 -74.6833 45° Northeast 265 305 4,100  Level New York TRACON
12:20PM 40.7833 -74.6167 45° Northeast 262 302 4,100 -420 Level New York TRACON
12:21PM 40.8333 -74.5500 52° Northeast 255 293 3,300 -600 Descending New York TRACON
12:22PM 40.8833 -74.4667 62° Northeast 257 296 3,000 -120 Descending New York TRACON
12:23PM 40.9167 -74.3833 62° Northeast 258 297 3,100  Climbing New York TRACON
12:24PM 40.9500 -74.3000 75° East 258 297 3,100 -180 Level New York TRACON
12:25PM 40.9667 -74.2167 108° East 236 272 2,800 -540 Descending New York TRACON
12:26PM 40.9500 -74.1500 108° East 197 227 2,100 -600 Descending New York TRACON
12:27PM 40.9333 -74.0833 143° Southeast 169 194 1,700 -540 Descending New York TRACON
12:28PM 40.9000 -74.0500 180° South 128 147 1,100 -660 Descending New York TRACON
12:29PM 40.8667 -74.0500 180° South 123 142 400 -780 Descending New York TRACON